Time;durP1;ratioP1;P1;durP2;ratioP2;P2;SDS_P1;SDS_P2;PMS_P1;PMS_P2;Temp;Humidity;BMP_temperature;BMP_pressure;BME280_temperature;BME280_humidity;BME280_pressure;Samples;Min_cycle;Max_cycle;Signal;HPM_P1;HPM_P2
2023/12/07 00:01:12;;;;;;;12.30;9.30;;;;;;;2.14;100.00;101893.56;5244804;28;20043;-75
2023/12/07 00:03:44;;;;;;;10.90;9.80;;;;;;;2.12;100.00;101888.47;5243660;28;20433;-76
2023/12/07 00:06:16;;;;;;;10.43;9.32;;;;;;;2.10;100.00;101885.06;5246028;28;20055;-75
2023/12/07 00:08:48;;;;;;;11.20;9.73;;;;;;;2.08;100.00;101878.25;5247927;28;20036;-75
2023/12/07 00:11:22;;;;;;;12.38;9.60;;;;;;;2.03;100.00;101870.66;5249747;28;20036;-75
2023/12/07 00:13:54;;;;;;;10.52;9.43;;;;;;;2.10;100.00;101881.63;5243358;28;20037;-76
2023/12/07 00:16:26;;;;;;;10.60;9.45;;;;;;;2.03;100.00;101868.06;5250024;28;20474;-75
2023/12/07 00:18:58;;;;;;;11.40;9.80;;;;;;;2.06;100.00;101867.13;5250198;28;20432;-75
2023/12/07 00:21:30;;;;;;;12.50;10.52;;;;;;;2.05;100.00;101870.63;5245758;28;20028;-75
2023/12/07 00:24:02;;;;;;;12.75;10.85;;;;;;;2.09;100.00;101875.63;5247665;28;20045;-75
2023/12/07 00:26:34;;;;;;;11.15;9.65;;;;;;;2.09;100.00;101878.22;5250266;28;20373;-75
2023/12/07 00:29:06;;;;;;;12.10;10.65;;;;;;;2.04;100.00;101876.66;5251084;28;20033;-75
2023/12/07 00:31:38;;;;;;;15.27;9.68;;;;;;;2.04;100.00;101874.91;5246302;28;20502;-75
2023/12/07 00:34:10;;;;;;;13.45;10.75;;;;;;;1.97;100.00;101868.28;5234100;28;20044;-75
2023/12/07 00:36:41;;;;;;;13.63;10.40;;;;;;;1.90;100.00;101867.63;5241811;28;20012;-75
2023/12/07 00:39:13;;;;;;;12.48;10.60;;;;;;;1.94;100.00;101881.31;5238326;28;20048;-75
2023/12/07 00:41:47;;;;;;;12.50;10.02;;;;;;;1.95;100.00;101875.22;5236070;28;20037;-75
2023/12/07 00:44:19;;;;;;;11.73;10.32;;;;;;;1.97;100.00;101876.03;5239093;28;20041;-76
2023/12/07 00:46:51;;;;;;;13.30;10.90;;;;;;;1.93;100.00;101877.88;5239424;28;20033;-75
2023/12/07 00:49:23;;;;;;;12.00;10.68;;;;;;;1.95;100.00;101873.47;5239047;28;20047;-75
2023/12/07 00:51:54;;;;;;;13.48;11.32;;;;;;;1.97;100.00;101870.00;5240623;28;20030;-75
2023/12/07 00:54:26;;;;;;;12.82;11.35;;;;;;;1.93;100.00;101859.78;5241524;28;20032;-75
2023/12/07 00:56:58;;;;;;;12.02;10.38;;;;;;;1.93;100.00;101869.25;5237499;28;20470;-75
2023/12/07 00:59:33;;;;;;;13.25;10.52;;;;;;;1.88;100.00;101874.56;5240040;28;20033;-75
2023/12/07 01:02:06;;;;;;;12.55;10.65;;;;;;;1.90;100.00;101874.53;5238146;28;20483;-74
2023/12/07 01:04:38;;;;;;;13.30;10.90;;;;;;;1.92;100.00;101877.91;5239040;28;20470;-74
2023/12/07 01:07:10;;;;;;;15.30;10.80;;;;;;;1.88;100.00;101876.31;5240909;28;20048;-75
2023/12/07 01:09:42;;;;;;;13.23;11.27;;;;;;;1.89;100.00;101873.66;5235860;28;20047;-75
2023/12/07 01:12:14;;;;;;;17.63;12.25;;;;;;;1.92;100.00;101893.41;5239058;28;20038;-75
2023/12/07 01:14:45;;;;;;;16.05;11.73;;;;;;;1.89;100.00;101885.75;5236748;28;20360;-74
2023/12/07 01:17:17;;;;;;;15.10;12.07;;;;;;;1.97;100.00;101881.22;5236747;28;20513;-74
2023/12/07 01:19:49;;;;;;;15.15;11.85;;;;;;;1.98;100.00;101897.56;5235774;28;20025;-75
2023/12/07 01:22:21;;;;;;;14.43;11.80;;;;;;;1.99;100.00;101889.75;5236261;28;20033;-75
2023/12/07 01:24:53;;;;;;;13.50;11.57;;;;;;;1.94;100.00;101883.88;5243448;28;20017;-74
2023/12/07 01:27:25;;;;;;;17.67;13.05;;;;;;;1.99;100.00;101888.91;5236806;28;20043;-75
2023/12/07 01:29:57;;;;;;;13.75;12.10;;;;;;;1.93;100.00;101884.75;5219474;28;20037;-75
2023/12/07 01:32:29;;;;;;;14.35;11.13;;;;;;;1.89;100.00;101888.34;5242182;28;20570;-74
2023/12/07 01:35:02;;;;;;;13.90;12.05;;;;;;;1.87;100.00;101890.13;5249208;28;20505;-75
2023/12/07 01:37:33;;;;;;;14.43;10.77;;;;;;;1.82;100.00;101892.00;5245725;28;20505;-75
2023/12/07 01:40:09;;;;;;;13.30;11.38;;;;;;;1.82;100.00;101892.00;5249273;28;20045;-74
2023/12/07 01:42:50;;;;;;;14.25;12.20;;;;;;;2.00;100.00;101882.81;5246158;28;20028;-75
2023/12/07 01:45:21;;;;;;;14.75;11.90;;;;;;;1.88;100.00;101881.47;5247264;28;20573;-74
2023/12/07 01:47:54;;;;;;;15.85;12.50;;;;;;;1.93;100.00;101895.09;5246886;28;20044;-75
2023/12/07 01:50:26;;;;;;;17.73;12.93;;;;;;;1.94;100.00;101894.22;5249097;28;20036;-75
2023/12/07 01:53:01;;;;;;;18.50;13.20;;;;;;;2.05;100.00;101878.38;5244250;28;20398;-74
2023/12/07 01:55:34;;;;;;;18.73;13.82;;;;;;;1.96;100.00;101887.25;5248400;28;20033;-74
2023/12/07 01:58:06;;;;;;;23.40;13.93;;;;;;;2.04;100.00;101890.44;5247703;28;20372;-74
2023/12/07 02:00:38;;;;;;;65.10;15.60;;;;;;;2.05;100.00;101881.78;5246492;28;20038;-75
2023/12/07 02:03:11;;;;;;;59.25;15.00;;;;;;;2.10;100.00;101890.22;5244767;28;20037;-75
2023/12/07 02:05:51;;;;;;;79.10;16.38;;;;;;;2.24;100.00;101899.28;5247530;28;20048;-74
2023/12/07 02:08:23;;;;;;;108.55;19.88;;;;;;;2.15;100.00;101896.09;5249110;28;20025;-75
2023/12/07 02:10:54;;;;;;;134.65;20.88;;;;;;;2.02;100.00;101868.97;5246574;28;20036;-75
2023/12/07 02:13:26;;;;;;;143.93;22.45;;;;;;;2.16;100.00;101892.63;5248200;28;20498;-75
2023/12/07 02:16:02;;;;;;;112.43;18.77;;;;;;;2.25;100.00;101893.22;5246777;28;20028;-75
2023/12/07 02:18:43;;;;;;;102.40;17.83;;;;;;;2.34;100.00;101893.75;5247167;28;20386;-75
2023/12/07 02:21:29;;;;;;;87.97;17.90;;;;;;;2.29;100.00;101893.06;5247344;28;20033;-75
2023/12/07 02:24:02;;;;;;;76.20;16.00;;;;;;;2.24;100.00;101905.31;5248021;28;20032;-75
2023/12/07 02:26:37;;;;;;;85.32;16.23;;;;;;;2.26;100.00;101913.84;5247817;28;20036;-75
2023/12/07 02:29:09;;;;;;;74.22;15.75;;;;;;;2.26;100.00;101907.81;5247507;28;20511;-75
2023/12/07 02:31:41;;;;;;;80.63;16.90;;;;;;;2.29;100.00;101910.31;5242910;28;20069;-75
2023/12/07 02:34:13;;;;;;;45.97;15.40;;;;;;;2.31;100.00;101905.94;5234926;28;20403;-75
2023/12/07 02:36:47;;;;;;;71.40;16.95;;;;;;;2.34;100.00;101905.81;5231841;28;20029;-75
2023/12/07 02:39:20;;;;;;;41.95;13.65;;;;;;;2.28;100.00;101890.53;5236978;28;20040;-75
2023/12/07 02:41:53;;;;;;;69.60;17.48;;;;;;;2.39;100.00;101903.94;5238977;28;20467;-75
2023/12/07 02:44:25;;;;;;;73.13;15.57;;;;;;;2.35;100.00;101900.63;5237177;28;20033;-75
2023/12/07 02:46:58;;;;;;;108.43;17.77;;;;;;;2.29;100.00;101890.47;5234768;28;20030;-75
2023/12/07 02:49:30;;;;;;;80.35;14.82;;;;;;;2.33;100.00;101894.66;5239729;28;20047;-75
2023/12/07 02:52:02;;;;;;;64.68;15.50;;;;;;;2.35;100.00;101897.16;5237941;28;20029;-75
2023/12/07 02:54:34;;;;;;;67.53;15.25;;;;;;;2.32;100.00;101897.28;5236725;28;20040;-75
2023/12/07 02:57:06;;;;;;;82.72;15.68;;;;;;;2.26;100.00;101892.31;5239315;28;20044;-75
2023/12/07 02:59:38;;;;;;;83.43;17.00;;;;;;;2.29;100.00;101887.03;5237560;28;20299;-75
2023/12/07 03:02:10;;;;;;;68.80;15.43;;;;;;;2.32;100.00;101889.53;5235700;28;20039;-75
2023/12/07 03:04:42;;;;;;;90.63;15.23;;;;;;;2.35;100.00;101897.16;5237404;28;20596;-75
2023/12/07 03:07:14;;;;;;;95.97;17.45;;;;;;;2.30;100.00;101901.66;5233947;28;20040;-75
2023/12/07 03:09:45;;;;;;;92.65;17.60;;;;;;;2.32;100.00;101894.72;5231941;28;20112;-75
2023/12/07 03:12:17;;;;;;;112.82;19.23;;;;;;;2.31;100.00;101901.63;5237810;28;20041;-75
2023/12/07 03:14:49;;;;;;;87.40;14.85;;;;;;;2.32;100.00;101905.06;5235333;28;20032;-75
2023/12/07 03:17:21;;;;;;;89.93;16.45;;;;;;;2.32;100.00;101902.47;5234957;28;20908;-75
2023/12/07 03:19:53;;;;;;;86.10;18.48;;;;;;;2.32;100.00;101903.31;5239842;28;20036;-75
2023/12/07 03:22:25;;;;;;;109.82;17.08;;;;;;;2.31;100.00;101901.63;5241072;28;20397;-75
2023/12/07 03:24:57;;;;;;;62.25;15.50;;;;;;;2.34;100.00;101911.00;5242177;28;20033;-75
2023/12/07 03:27:29;;;;;;;107.22;17.35;;;;;;;2.32;100.00;101905.91;5242068;28;20065;-75
2023/12/07 03:30:01;;;;;;;109.15;16.88;;;;;;;2.23;100.00;101915.69;5240964;28;20025;-75
2023/12/07 03:32:32;;;;;;;96.28;15.50;;;;;;;2.20;100.00;101908.88;5240925;28;20048;-75
2023/12/07 03:35:05;;;;;;;77.28;16.60;;;;;;;2.20;100.00;101901.13;5242282;28;20033;-75
2023/12/07 03:37:37;;;;;;;64.70;15.68;;;;;;;2.19;100.00;101895.09;5243488;28;20096;-75
2023/12/07 03:40:09;;;;;;;74.75;15.27;;;;;;;2.25;100.00;101913.91;5238930;28;20029;-75
2023/12/07 03:42:41;;;;;;;85.60;17.50;;;;;;;2.15;100.00;101909.00;5237057;28;20041;-75
2023/12/07 03:45:13;;;;;;;36.30;13.05;;;;;;;2.23;100.00;101911.34;5240040;28;20035;-75
2023/12/07 03:47:45;;;;;;;73.38;15.38;;;;;;;2.26;100.00;101921.59;5238609;28;20033;-75
2023/12/07 03:50:17;;;;;;;99.38;18.15;;;;;;;2.19;100.00;101915.78;5242991;28;21119;-75
2023/12/07 03:52:48;;;;;;;68.32;15.65;;;;;;;2.29;100.00;101918.91;5240674;28;20382;-75
2023/12/07 03:55:20;;;;;;;77.88;17.20;;;;;;;2.31;100.00;101921.44;5244389;28;20033;-75
2023/12/07 03:57:52;;;;;;;103.68;19.40;;;;;;;2.31;100.00;101926.63;5245143;28;20043;-75
2023/12/07 04:00:24;;;;;;;96.00;17.67;;;;;;;2.30;100.00;101930.94;5247241;28;20342;-75
2023/12/07 04:02:56;;;;;;;91.45;17.95;;;;;;;2.28;100.00;101930.16;5238409;28;20036;-75
2023/12/07 04:05:28;;;;;;;61.58;16.30;;;;;;;2.28;100.00;101942.25;5223828;28;20064;-74
2023/12/07 04:08:00;;;;;;;65.45;16.17;;;;;;;2.32;100.00;101924.00;5237828;28;20029;-75
2023/12/07 04:10:32;;;;;;;83.03;16.90;;;;;;;2.34;100.00;101931.69;5245157;28;20037;-75
2023/12/07 04:13:04;;;;;;;59.75;15.70;;;;;;;2.39;100.00;101922.06;5242763;28;20033;-75
2023/12/07 04:15:36;;;;;;;65.50;17.42;;;;;;;2.37;100.00;101931.59;5240916;28;20032;-75
2023/12/07 04:18:07;;;;;;;98.97;18.50;;;;;;;2.35;100.00;101938.53;5239405;28;20459;-75
2023/12/07 04:20:39;;;;;;;106.65;17.80;;;;;;;2.36;100.00;101940.25;5241519;28;20032;-75
2023/12/07 04:23:11;;;;;;;77.38;18.58;;;;;;;2.31;100.00;101939.53;5244144;28;20048;-74
2023/12/07 04:25:43;;;;;;;59.72;16.63;;;;;;;2.31;100.00;101940.41;5241258;28;20029;-75
2023/12/07 04:28:15;;;;;;;54.88;15.40;;;;;;;2.33;100.00;101950.69;5241627;28;20037;-75
2023/12/07 04:30:47;;;;;;;52.75;15.82;;;;;;;2.30;100.00;101949.03;5241746;28;20103;-75
2023/12/07 04:33:19;;;;;;;48.00;15.50;;;;;;;2.33;100.00;101953.28;5242272;28;20502;-75
2023/12/07 04:35:51;;;;;;;68.10;16.40;;;;;;;2.33;100.00;101948.09;5220064;28;20068;-75
2023/12/07 04:38:23;;;;;;;65.93;19.88;;;;;;;2.31;100.00;101950.75;5242043;28;20029;-75
2023/12/07 04:40:54;;;;;;;64.78;19.63;;;;;;;2.27;100.00;101954.31;5242954;28;20035;-75
2023/12/07 04:43:26;;;;;;;55.67;20.25;;;;;;;2.29;100.00;101947.38;5239346;28;20040;-74
2023/12/07 04:45:59;;;;;;;54.17;18.92;;;;;;;2.27;100.00;101945.72;5239059;28;20536;-75
2023/12/07 04:48:31;;;;;;;67.17;18.90;;;;;;;2.30;100.00;101946.44;5243219;28;20499;-75
2023/12/07 04:51:03;;;;;;;70.22;18.77;;;;;;;2.25;100.00;101930.25;5241027;28;20028;-75
2023/12/07 04:53:35;;;;;;;75.37;19.27;;;;;;;2.29;100.00;101931.84;5241311;28;20033;-75
2023/12/07 04:56:07;;;;;;;57.83;16.38;;;;;;;2.24;100.00;101943.25;5238419;28;20055;-75
2023/12/07 04:58:39;;;;;;;74.57;18.77;;;;;;;2.18;100.00;101939.94;5238998;28;20048;-75
2023/12/07 05:01:11;;;;;;;66.07;14.80;;;;;;;2.13;100.00;101920.31;5240626;28;20036;-75
2023/12/07 05:03:44;;;;;;;62.20;15.50;;;;;;;2.24;100.00;101928.56;5246099;28;20387;-75
2023/12/07 05:06:15;;;;;;;32.03;14.38;;;;;;;2.21;100.00;101912.31;5240451;28;20033;-75
2023/12/07 05:08:47;;;;;;;66.95;14.52;;;;;;;2.26;100.00;101913.00;5244351;28;20078;-75
2023/12/07 05:11:19;;;;;;;36.72;13.50;;;;;;;2.30;100.00;101910.25;5234504;28;20037;-75
2023/12/07 05:13:51;;;;;;;58.28;13.38;;;;;;;2.26;100.00;101910.41;5240733;28;20029;-75
2023/12/07 05:16:23;;;;;;;50.45;13.75;;;;;;;2.30;100.00;101901.66;5238006;28;20038;-74
2023/12/07 05:18:55;;;;;;;49.97;14.73;;;;;;;2.27;100.00;101905.19;5237069;28;20197;-75
2023/12/07 05:21:27;;;;;;;73.13;15.98;;;;;;;2.29;100.00;101908.56;5239441;28;20394;-75
2023/12/07 05:23:59;;;;;;;48.60;14.48;;;;;;;2.28;100.00;101898.28;5220498;28;20060;-75
2023/12/07 05:26:32;;;;;;;44.25;13.60;;;;;;;2.35;100.00;101910.97;5242775;28;20033;-75
2023/12/07 05:29:04;;;;;;;;;;;;;;;2.95;100.00;101903.69;5238888;28;20056;-75
2023/12/07 05:31:36;;;;;;;48.83;13.65;;;;;;;2.44;100.00;101907.22;5240111;28;19916;-75
2023/12/07 05:34:08;;;;;;;53.17;14.57;;;;;;;2.41;100.00;101899.56;5249213;28;20036;-75
2023/12/07 05:36:40;;;;;;;73.20;15.32;;;;;;;2.41;100.00;101902.97;5250346;28;20054;-75
2023/12/07 05:39:12;;;;;;;77.07;15.85;;;;;;;2.42;100.00;101899.53;5248017;28;20033;-75
2023/12/07 05:41:46;;;;;;;53.70;14.93;;;;;;;2.43;100.00;101900.38;5244923;28;20056;-75
2023/12/07 05:44:21;;;;;;;50.33;13.73;;;;;;;2.40;100.00;101906.47;5248217;28;20041;-75
2023/12/07 05:46:54;;;;;;;81.85;17.38;;;;;;;2.37;100.00;101903.16;5248371;28;20033;-75
2023/12/07 05:49:26;;;;;;;74.78;14.88;;;;;;;2.46;100.00;101902.81;5246984;28;20037;-75
2023/12/07 05:51:58;;;;;;;73.45;15.32;;;;;;;2.43;100.00;101900.38;5243815;28;20039;-74
2023/12/07 05:54:30;;;;;;;60.92;13.52;;;;;;;2.48;100.00;101898.47;5247074;28;20399;-75
2023/12/07 05:57:02;;;;;;;56.50;15.35;;;;;;;2.46;100.00;101899.41;5245110;28;20063;-75
2023/12/07 05:59:38;;;;;;;57.78;14.80;;;;;;;2.51;100.00;101906.13;5245494;28;20037;-75
2023/12/07 06:02:09;;;;;;;60.30;13.95;;;;;;;2.42;100.00;101899.53;5249822;28;20036;-75
2023/12/07 06:04:41;;;;;;;77.15;15.30;;;;;;;2.46;100.00;101899.41;5245429;28;20037;-75
2023/12/07 06:07:13;;;;;;;63.55;15.15;;;;;;;2.46;100.00;101891.63;5249212;28;20339;-75
2023/12/07 06:09:45;;;;;;;55.30;14.20;;;;;;;2.49;100.00;101891.53;5246856;28;20032;-75
2023/12/07 06:12:17;;;;;;;50.65;13.70;;;;;;;2.54;100.00;101906.03;5248242;28;20623;-75
2023/12/07 06:14:49;;;;;;;65.85;14.50;;;;;;;2.58;100.00;101911.94;5247365;28;20397;-75
2023/12/07 06:17:21;;;;;;;64.57;14.55;;;;;;;2.57;100.00;101903.31;5247225;28;20055;-75
2023/12/07 06:19:53;;;;;;;64.45;14.73;;;;;;;2.53;100.00;101900.88;5247573;28;20063;-74
2023/12/07 06:22:24;;;;;;;50.70;13.63;;;;;;;2.53;100.00;101893.97;5246133;28;20037;-74
2023/12/07 06:24:56;;;;;;;40.88;14.60;;;;;;;2.57;100.00;101899.88;5246211;28;20029;-74
2023/12/07 06:27:28;;;;;;;59.03;12.57;;;;;;;2.54;100.00;101897.38;5246311;28;20487;-75
2023/12/07 06:30:01;;;;;;;54.92;13.50;;;;;;;2.57;100.00;101903.31;5246012;28;20636;-75
2023/12/07 06:32:33;;;;;;;60.80;15.98;;;;;;;2.62;100.00;101908.34;5240222;28;20060;-75
2023/12/07 06:35:06;;;;;;;45.33;12.67;;;;;;;2.62;100.00;101904.00;5230842;28;20037;-75
2023/12/07 06:37:39;;;;;;;41.53;11.45;;;;;;;2.57;100.00;101877.44;5236237;28;20017;-75
2023/12/07 06:40:11;;;;;;;;;;;;;;;3.19;100.00;101888.19;5236575;28;20039;-75
2023/12/07 06:42:42;;;;;;;45.08;11.07;;;;;;;2.70;100.00;101875.28;5236652;28;19947;-75
2023/12/07 06:45:14;;;;;;;52.95;13.15;;;;;;;2.65;100.00;101866.81;5237980;28;20040;-75
2023/12/07 06:47:46;;;;;;;43.28;11.55;;;;;;;2.64;100.00;101873.75;5236540;28;20033;-75
2023/12/07 06:50:18;;;;;;;69.13;13.25;;;;;;;2.59;100.00;101864.47;5239211;28;20370;-75
2023/12/07 06:52:50;;;;;;;44.88;12.38;;;;;;;2.61;100.00;101865.22;5241578;28;20033;-75
2023/12/07 06:55:22;;;;;;;38.20;11.85;;;;;;;2.63;100.00;101863.44;5241711;28;20579;-74
2023/12/07 06:57:54;;;;;;;39.42;12.77;;;;;;;2.64;100.00;101862.53;5244042;28;20483;-74
2023/12/07 07:00:26;;;;;;;38.47;11.60;;;;;;;2.65;100.00;101865.09;5247338;28;20033;-74
2023/12/07 07:02:58;;;;;;;46.25;12.77;;;;;;;2.73;100.00;101863.94;5244874;28;20031;-74
2023/12/07 07:05:30;;;;;;;26.75;11.20;;;;;;;2.74;100.00;101869.09;5242538;28;20037;-74
2023/12/07 07:08:02;;;;;;;28.95;10.85;;;;;;;2.73;100.00;101872.59;5241745;28;20030;-74
2023/12/07 07:10:34;;;;;;;40.47;12.80;;;;;;;2.70;100.00;101874.44;5243241;28;20567;-74
2023/12/07 07:13:06;;;;;;;32.72;12.20;;;;;;;2.80;100.00;101883.53;5246581;28;20028;-74
2023/12/07 07:15:38;;;;;;;36.53;12.15;;;;;;;2.77;100.00;101878.50;5243971;28;20033;-74
2023/12/07 07:18:10;;;;;;;36.42;13.52;;;;;;;2.78;100.00;101883.63;5246229;28;20058;-74
2023/12/07 07:20:42;;;;;;;43.03;12.57;;;;;;;2.78;100.00;101877.59;5243160;28;20052;-75
2023/12/07 07:23:14;;;;;;;32.25;12.48;;;;;;;2.81;100.00;101880.91;5221420;28;20045;-75
2023/12/07 07:25:46;;;;;;;33.60;13.32;;;;;;;2.73;100.00;101882.94;5222180;28;20040;-75
2023/12/07 07:28:18;;;;;;;39.78;14.05;;;;;;;2.76;100.00;101884.56;5244438;28;20037;-75
2023/12/07 07:30:51;;;;;;;43.05;14.82;;;;;;;2.78;100.00;101887.94;5242551;28;20040;-75
2023/12/07 07:33:23;;;;;;;38.65;14.10;;;;;;;2.83;100.00;101889.47;5254676;28;20422;-74
2023/12/07 07:35:55;;;;;;;33.70;14.35;;;;;;;2.83;100.00;101898.97;5252287;28;20037;-74
2023/12/07 07:38:27;;;;;;;41.92;14.52;;;;;;;2.85;100.00;101892.84;5251442;28;20016;-74
2023/12/07 07:40:58;;;;;;;35.17;15.13;;;;;;;2.90;100.00;101888.34;5251323;28;20037;-74
2023/12/07 07:43:30;;;;;;;35.00;15.48;;;;;;;2.97;100.00;101896.75;5253334;28;20043;-74
2023/12/07 07:46:06;;;;;;;24.13;13.55;;;;;;;3.02;100.00;101881.88;5252075;28;20040;-75
2023/12/07 07:48:39;;;;;;;26.08;14.40;;;;;;;2.98;100.00;101888.06;5252432;28;20037;-75
2023/12/07 07:51:11;;;;;;;30.48;15.82;;;;;;;2.98;100.00;101890.66;5251834;28;20378;-75
2023/12/07 07:53:43;;;;;;;31.65;14.15;;;;;;;2.97;100.00;101894.16;5251141;28;20044;-74
2023/12/07 07:56:15;;;;;;;26.52;15.30;;;;;;;2.90;100.00;101872.81;5249025;28;20658;-74
2023/12/07 07:58:47;;;;;;;28.27;14.13;;;;;;;3.04;100.00;101879.25;5251403;28;20029;-74
2023/12/07 08:01:19;;;;;;;26.80;14.57;;;;;;;3.03;100.00;101878.41;5252250;28;20045;-74
2023/12/07 08:03:51;;;;;;;28.50;14.15;;;;;;;3.02;100.00;101876.69;5253218;28;20032;-74
2023/12/07 08:06:22;;;;;;;24.75;14.57;;;;;;;3.05;100.00;101889.53;5253345;28;20025;-74
2023/12/07 08:08:54;;;;;;;25.30;14.00;;;;;;;3.09;100.00;101880.75;5253627;28;20490;-74
2023/12/07 08:11:26;;;;;;;24.17;14.52;;;;;;;3.10;100.00;101873.81;5250766;28;20391;-74
2023/12/07 08:13:58;;;;;;;28.30;14.98;;;;;;;3.04;100.00;101859.38;5251573;28;20039;-75
2023/12/07 08:16:30;;;;;;;27.33;14.48;;;;;;;3.09;100.00;101877.31;5252410;28;20059;-74
2023/12/07 08:19:02;;;;;;;21.77;14.55;;;;;;;3.10;100.00;101874.66;5250997;28;20029;-74
2023/12/07 08:21:34;;;;;;;23.70;13.70;;;;;;;3.10;100.00;101881.59;5253974;28;20032;-75
2023/12/07 08:24:06;;;;;;;20.08;13.93;;;;;;;3.01;100.00;101880.19;5247763;28;20123;-74
2023/12/07 08:26:38;;;;;;;21.00;14.13;;;;;;;3.07;100.00;101886.88;5248741;28;20036;-74
2023/12/07 08:29:10;;;;;;;18.83;13.20;;;;;;;3.09;100.00;101885.09;5252959;28;20052;-74
2023/12/07 08:31:42;;;;;;;24.58;13.95;;;;;;;3.13;100.00;101889.25;5247950;28;20063;-75
2023/12/07 08:34:14;;;;;;;23.15;14.80;;;;;;;3.14;100.00;101877.97;5237207;28;20044;-75
2023/12/07 08:36:46;;;;;;;19.58;13.88;;;;;;;3.17;100.00;101881.31;5235412;28;20055;-75
2023/12/07 08:39:18;;;;;;;20.65;13.98;;;;;;;3.07;100.00;101874.81;5235065;28;20045;-74
2023/12/07 08:41:50;;;;;;;20.75;14.48;;;;;;;3.14;100.00;101885.75;5237244;28;20029;-74
2023/12/07 08:44:22;;;;;;;18.77;13.40;;;;;;;3.15;100.00;101880.53;5235085;28;20040;-74
2023/12/07 08:46:54;;;;;;;18.88;13.23;;;;;;;3.22;100.00;101890.66;5236279;28;20158;-74
2023/12/07 08:49:26;;;;;;;19.27;13.70;;;;;;;3.22;100.00;101886.34;5235687;28;20025;-74
2023/12/07 08:51:58;;;;;;;19.90;14.85;;;;;;;3.24;100.00;101886.25;5218585;28;20478;-74
2023/12/07 08:54:30;;;;;;;19.25;13.25;;;;;;;3.29;100.00;101889.50;5235374;28;20037;-74
2023/12/07 08:57:03;;;;;;;20.80;13.85;;;;;;;3.32;100.00;101892.84;5236027;28;20508;-74
2023/12/07 08:59:34;;;;;;;20.20;13.77;;;;;;;3.35;100.00;101889.28;5236548;28;20042;-74
2023/12/07 09:02:06;;;;;;;19.45;14.05;;;;;;;3.28;100.00;101893.00;5234780;28;20063;-74
2023/12/07 09:04:39;;;;;;;22.52;14.07;;;;;;;3.32;100.00;101885.06;5235310;28;20099;-74
2023/12/07 09:07:15;;;;;;;18.90;13.70;;;;;;;3.38;100.00;101881.41;5235496;28;20494;-74
2023/12/07 09:09:48;;;;;;;21.13;14.65;;;;;;;3.38;100.00;101884.00;5209896;28;20396;-75
2023/12/07 09:12:20;;;;;;;20.00;14.23;;;;;;;3.32;100.00;101874.72;5235169;28;20040;-74
2023/12/07 09:14:52;;;;;;;19.60;14.20;;;;;;;3.35;100.00;101872.00;5235317;28;20033;-74
2023/12/07 09:17:24;;;;;;;21.58;15.60;;;;;;;3.40;100.00;101875.25;5234796;28;20490;-75
2023/12/07 09:19:56;;;;;;;23.83;17.05;;;;;;;3.35;100.00;101874.59;5208456;28;20047;-74
2023/12/07 09:22:28;;;;;;;24.85;16.83;;;;;;;3.42;100.00;101877.81;5234010;28;20039;-75
2023/12/07 09:25:00;;;;;;;22.67;16.85;;;;;;;3.46;100.00;101873.34;5234206;28;20032;-74
2023/12/07 09:27:33;;;;;;;24.88;16.20;;;;;;;3.49;100.00;101878.41;5234739;28;20037;-74
2023/12/07 09:30:06;;;;;;;25.20;16.83;;;;;;;3.55;100.00;101881.59;5235302;28;20030;-75
2023/12/07 09:32:39;;;;;;;24.58;16.98;;;;;;;3.63;100.00;101865.75;5239178;28;20076;-75
2023/12/07 09:35:18;;;;;;;20.80;15.88;;;;;;;3.60;100.00;101866.72;5238469;28;20491;-74
2023/12/07 09:37:50;;;;;;;26.42;17.13;;;;;;;3.59;100.00;101848.63;5241331;28;20018;-74
2023/12/07 09:40:24;;;;;;;24.48;17.40;;;;;;;3.72;100.00;101855.03;5239949;28;20047;-75
2023/12/07 09:42:56;;;;;;;23.27;17.23;;;;;;;3.75;100.00;101856.63;5242160;28;20033;-75
2023/12/07 09:45:28;;;;;;;23.15;17.35;;;;;;;3.71;100.00;101842.13;5242442;28;20425;-75
2023/12/07 09:48:00;;;;;;;22.58;17.02;;;;;;;3.84;100.00;101848.50;5239677;28;20096;-75
2023/12/07 09:50:32;;;;;;;22.90;17.38;;;;;;;3.86;100.00;101851.88;5242382;28;20414;-75
2023/12/07 09:53:04;;;;;;;25.45;17.77;;;;;;;3.85;100.00;101842.41;5242651;28;20045;-75
2023/12/07 09:55:36;;;;;;;24.70;17.60;;;;;;;3.87;100.00;101832.84;5242112;28;20409;-75
2023/12/07 09:58:07;;;;;;;23.77;18.05;;;;;;;3.95;100.00;101829.94;5240105;28;20025;-75
2023/12/07 10:00:39;;;;;;;22.13;17.05;;;;;;;4.03;100.00;101826.09;5243170;28;20028;-75
2023/12/07 10:03:21;;;;;;;25.85;17.30;;;;;;;4.19;100.00;101818.53;5242508;28;20029;-75
2023/12/07 10:05:58;;;;;;;24.50;17.38;;;;;;;4.06;100.00;101807.00;5238935;28;20032;-75
2023/12/07 10:08:31;;;;;;;22.27;16.88;;;;;;;4.10;100.00;101801.59;5241813;28;20040;-75
2023/12/07 10:11:08;;;;;;;18.58;16.05;;;;;;;4.14;100.00;101797.13;5240024;28;20041;-75
2023/12/07 10:13:40;;;;;;;19.58;15.50;;;;;;;4.11;100.00;101792.06;5240816;28;20037;-75
2023/12/07 10:16:15;;;;;;;18.70;16.08;;;;;;;4.18;100.00;101801.28;5243048;28;20040;-75
2023/12/07 10:18:48;;;;;;;20.73;16.33;;;;;;;4.14;100.00;101787.59;5240597;28;20362;-75
2023/12/07 10:21:33;;;;;;;19.48;15.05;;;;;;;4.43;100.00;101782.03;5243022;28;20030;-75
2023/12/07 10:24:05;;;;;;;20.30;15.50;;;;;;;4.22;100.00;101781.25;5239989;28;20359;-75
2023/12/07 10:26:38;;;;;;;18.85;15.48;;;;;;;4.22;100.00;101769.13;5242409;28;20043;-75
2023/12/07 10:29:10;;;;;;;26.85;16.10;;;;;;;4.25;100.00;101768.16;5244905;28;20044;-75
2023/12/07 10:31:43;;;;;;;20.10;16.55;;;;;;;4.34;100.00;101760.78;5240623;28;20507;-75
2023/12/07 10:34:21;;;;;;;19.50;15.98;;;;;;;4.48;100.00;101770.56;5240710;28;20374;-75
2023/12/07 10:36:55;;;;;;;20.88;15.65;;;;;;;4.45;100.00;101770.69;5241256;28;20387;-75
2023/12/07 10:39:27;;;;;;;18.17;14.55;;;;;;;4.43;100.00;101764.72;5243277;28;20034;-74
2023/12/07 10:42:02;;;;;;;17.27;14.23;;;;;;;4.56;100.00;101767.63;5238738;28;20628;-75
2023/12/07 10:44:39;;;;;;;16.73;13.82;;;;;;;4.56;100.00;101760.69;5239353;28;20057;-75
2023/12/07 10:47:12;;;;;;;18.55;14.57;;;;;;;4.46;100.00;101743.00;5241054;28;20029;-75
2023/12/07 10:49:47;;;;;;;26.35;15.32;;;;;;;4.60;100.00;101741.47;5242325;28;20041;-75
2023/12/07 10:52:23;;;;;;;19.80;14.77;;;;;;;4.62;100.00;101739.66;5242167;28;20491;-75
2023/12/07 10:55:13;;;;;;;16.13;14.13;;;;;;;4.84;100.00;101741.25;5241439;28;20042;-75
2023/12/07 10:57:46;;;;;;;18.60;14.45;;;;;;;4.66;100.00;101734.28;5242299;28;20025;-75
2023/12/07 11:00:19;;;;;;;;;;;;;;;5.25;100.00;101730.66;5239878;28;20034;-74
2023/12/07 11:02:52;;;;;;;18.00;14.02;;;;;;;4.79;100.00;101736.28;5243603;28;19917;-75
2023/12/07 11:05:25;;;;;;;14.98;12.63;;;;;;;4.76;100.00;101726.03;5241439;28;20033;-75
2023/12/07 11:08:06;;;;;;;15.77;13.52;;;;;;;4.96;100.00;101719.06;5224032;28;20047;-75
2023/12/07 11:11:00;;;;;;;15.02;13.43;;;;;;;4.97;100.00;101726.78;5243021;28;20033;-75
2023/12/07 11:13:35;;;;;;;16.23;12.73;;;;;;;4.86;100.00;101709.13;5243260;28;20033;-75
2023/12/07 11:16:09;;;;;;;19.75;12.85;;;;;;;4.93;100.00;101701.88;5242411;28;20121;-75
2023/12/07 11:18:40;;;;;;;;;;;;;;;5.48;100.00;101686.19;5246001;28;20509;-75
2023/12/07 11:21:12;;;;;;;15.43;12.70;;;;;;;5.08;100.00;101680.38;5242847;28;19920;-75
2023/12/07 11:23:44;;;;;;;13.25;11.80;;;;;;;5.13;100.00;101680.13;5241193;28;20029;-75
2023/12/07 11:26:28;;;;;;;15.43;12.93;;;;;;;5.24;100.00;101677.88;5240889;28;20468;-75
2023/12/07 11:28:59;;;;;;;16.52;12.13;;;;;;;5.25;100.00;101676.09;5240392;28;20034;-75
2023/12/07 11:31:33;;;;;;;14.98;12.75;;;;;;;5.21;100.00;101665.03;5243881;28;20047;-75
2023/12/07 11:34:13;;;;;;;13.50;11.82;;;;;;;5.32;100.00;101670.53;5242983;28;20048;-75